sensor_id;sensor_type;location;lat;lon;timestamp;temperature;humidity
26164;DHT22;13914;48.178;11.716;2023-04-01T00:01:28;8.30;79.80
26164;DHT22;13914;48.178;11.716;2023-04-01T00:03:54;8.30;79.70
26164;DHT22;13914;48.178;11.716;2023-04-01T00:06:21;8.30;79.70
26164;DHT22;13914;48.178;11.716;2023-04-01T00:08:47;8.30;79.60
26164;DHT22;13914;48.178;11.716;2023-04-01T00:11:13;8.20;79.70
26164;DHT22;13914;48.178;11.716;2023-04-01T00:13:40;8.20;80.00
26164;DHT22;13914;48.178;11.716;2023-04-01T00:16:07;8.20;80.00
26164;DHT22;13914;48.178;11.716;2023-04-01T00:18:33;8.20;79.80
26164;DHT22;13914;48.178;11.716;2023-04-01T00:20:58;8.20;79.90
26164;DHT22;13914;48.178;11.716;2023-04-01T00:23:24;8.20;80.10
26164;DHT22;13914;48.178;11.716;2023-04-01T00:25:50;8.20;80.40
26164;DHT22;13914;48.178;11.716;2023-04-01T00:28:16;8.20;80.00
26164;DHT22;13914;48.178;11.716;2023-04-01T00:30:43;8.20;80.50
26164;DHT22;13914;48.178;11.716;2023-04-01T00:33:09;8.10;80.10
26164;DHT22;13914;48.178;11.716;2023-04-01T00:35:35;8.10;80.30
26164;DHT22;13914;48.178;11.716;2023-04-01T00:38:02;8.10;80.50
26164;DHT22;13914;48.178;11.716;2023-04-01T00:40:38;8.10;80.50
26164;DHT22;13914;48.178;11.716;2023-04-01T00:43:17;8.10;80.20
26164;DHT22;13914;48.178;11.716;2023-04-01T00:45:46;8.10;80.20
26164;DHT22;13914;48.178;11.716;2023-04-01T00:48:14;8.10;80.30
26164;DHT22;13914;48.178;11.716;2023-04-01T00:50:43;8.00;80.30
26164;DHT22;13914;48.178;11.716;2023-04-01T00:53:11;8.00;80.60
26164;DHT22;13914;48.178;11.716;2023-04-01T00:55:38;8.00;80.30
26164;DHT22;13914;48.178;11.716;2023-04-01T00:58:08;8.00;80.60
26164;DHT22;13914;48.178;11.716;2023-04-01T01:00:36;8.00;80.20
26164;DHT22;13914;48.178;11.716;2023-04-01T01:03:03;8.00;80.40
26164;DHT22;13914;48.178;11.716;2023-04-01T01:05:41;8.00;80.20
26164;DHT22;13914;48.178;11.716;2023-04-01T01:08:31;8.00;80.40
26164;DHT22;13914;48.178;11.716;2023-04-01T01:11:05;8.00;80.30
26164;DHT22;13914;48.178;11.716;2023-04-01T01:13:34;8.00;80.60
26164;DHT22;13914;48.178;11.716;2023-04-01T01:16:14;8.00;80.60
26164;DHT22;13914;48.178;11.716;2023-04-01T01:23:49;7.90;80.60
26164;DHT22;13914;48.178;11.716;2023-04-01T01:37:49;7.90;81.80
26164;DHT22;13914;48.178;11.716;2023-04-01T01:40:17;7.90;81.10
26164;DHT22;13914;48.178;11.716;2023-04-01T01:42:44;7.80;81.90
26164;DHT22;13914;48.178;11.716;2023-04-01T01:45:12;7.90;81.60
26164;DHT22;13914;48.178;11.716;2023-04-01T01:47:40;7.80;81.40
26164;DHT22;13914;48.178;11.716;2023-04-01T01:50:06;7.80;81.50
26164;DHT22;13914;48.178;11.716;2023-04-01T01:52:33;7.80;81.40
26164;DHT22;13914;48.178;11.716;2023-04-01T01:54:59;7.80;81.80
26164;DHT22;13914;48.178;11.716;2023-04-01T01:57:25;7.90;81.60
26164;DHT22;13914;48.178;11.716;2023-04-01T01:59:56;7.80;81.50
26164;DHT22;13914;48.178;11.716;2023-04-01T02:02:25;7.80;81.60
26164;DHT22;13914;48.178;11.716;2023-04-01T02:04:51;7.80;81.50
26164;DHT22;13914;48.178;11.716;2023-04-01T02:07:22;7.80;81.70
26164;DHT22;13914;48.178;11.716;2023-04-01T02:09:50;7.80;81.40
26164;DHT22;13914;48.178;11.716;2023-04-01T02:12:17;7.80;81.60
26164;DHT22;13914;48.178;11.716;2023-04-01T02:17:22;7.80;81.50
26164;DHT22;13914;48.178;11.716;2023-04-01T02:19:50;7.80;81.40
26164;DHT22;13914;48.178;11.716;2023-04-01T02:22:23;7.80;81.50
26164;DHT22;13914;48.178;11.716;2023-04-01T02:24:50;7.80;81.40
26164;DHT22;13914;48.178;11.716;2023-04-01T02:27:18;7.80;81.40
26164;DHT22;13914;48.178;11.716;2023-04-01T02:29:45;7.80;81.20
26164;DHT22;13914;48.178;11.716;2023-04-01T02:32:10;7.80;81.50
26164;DHT22;13914;48.178;11.716;2023-04-01T02:34:38;7.80;81.60
26164;DHT22;13914;48.178;11.716;2023-04-01T02:37:03;7.80;81.60
26164;DHT22;13914;48.178;11.716;2023-04-01T02:39:29;7.80;81.50
26164;DHT22;13914;48.178;11.716;2023-04-01T02:41:55;7.80;81.40
26164;DHT22;13914;48.178;11.716;2023-04-01T02:44:21;7.80;81.50
26164;DHT22;13914;48.178;11.716;2023-04-01T02:46:46;7.80;81.40
26164;DHT22;13914;48.178;11.716;2023-04-01T02:49:12;7.80;81.40
26164;DHT22;13914;48.178;11.716;2023-04-01T02:51:38;7.80;81.30
26164;DHT22;13914;48.178;11.716;2023-04-01T02:54:03;7.80;81.10
26164;DHT22;13914;48.178;11.716;2023-04-01T02:56:29;7.80;81.20
26164;DHT22;13914;48.178;11.716;2023-04-01T02:58:55;7.80;81.20
26164;DHT22;13914;48.178;11.716;2023-04-01T03:01:21;7.80;81.20
26164;DHT22;13914;48.178;11.716;2023-04-01T03:03:47;7.80;81.30
26164;DHT22;13914;48.178;11.716;2023-04-01T03:06:14;7.80;81.50
26164;DHT22;13914;48.178;11.716;2023-04-01T03:08:40;7.80;81.10
26164;DHT22;13914;48.178;11.716;2023-04-01T03:11:05;7.80;81.30
26164;DHT22;13914;48.178;11.716;2023-04-01T03:13:31;7.80;81.00
26164;DHT22;13914;48.178;11.716;2023-04-01T03:15:57;7.80;81.30
26164;DHT22;13914;48.178;11.716;2023-04-01T03:18:23;7.80;82.20
26164;DHT22;13914;48.178;11.716;2023-04-01T03:20:48;7.80;81.50
26164;DHT22;13914;48.178;11.716;2023-04-01T03:23:14;7.80;81.50
26164;DHT22;13914;48.178;11.716;2023-04-01T03:25:42;7.80;81.50
26164;DHT22;13914;48.178;11.716;2023-04-01T03:28:08;7.70;81.40
26164;DHT22;13914;48.178;11.716;2023-04-01T03:30:34;7.70;81.50
26164;DHT22;13914;48.178;11.716;2023-04-01T03:33:00;7.80;81.30
26164;DHT22;13914;48.178;11.716;2023-04-01T03:35:26;7.80;81.10
26164;DHT22;13914;48.178;11.716;2023-04-01T03:37:52;7.80;81.30
26164;DHT22;13914;48.178;11.716;2023-04-01T03:40:18;7.80;82.10
26164;DHT22;13914;48.178;11.716;2023-04-01T03:42:44;7.70;81.20
26164;DHT22;13914;48.178;11.716;2023-04-01T03:45:10;7.70;81.00
26164;DHT22;13914;48.178;11.716;2023-04-01T03:47:37;7.70;81.20
26164;DHT22;13914;48.178;11.716;2023-04-01T03:50:05;7.70;81.00
26164;DHT22;13914;48.178;11.716;2023-04-01T03:52:32;7.70;80.80
26164;DHT22;13914;48.178;11.716;2023-04-01T03:54:58;7.70;81.10
26164;DHT22;13914;48.178;11.716;2023-04-01T03:57:24;7.70;80.90
26164;DHT22;13914;48.178;11.716;2023-04-01T03:59:50;7.70;81.20
26164;DHT22;13914;48.178;11.716;2023-04-01T04:02:15;7.70;81.20
26164;DHT22;13914;48.178;11.716;2023-04-01T04:04:42;7.60;81.20
26164;DHT22;13914;48.178;11.716;2023-04-01T04:07:08;7.60;81.00
26164;DHT22;13914;48.178;11.716;2023-04-01T04:09:33;7.60;81.10
26164;DHT22;13914;48.178;11.716;2023-04-01T04:12:00;7.60;81.30
26164;DHT22;13914;48.178;11.716;2023-04-01T04:14:26;7.60;80.90
26164;DHT22;13914;48.178;11.716;2023-04-01T04:16:52;7.60;81.50
26164;DHT22;13914;48.178;11.716;2023-04-01T04:19:17;7.60;81.50
26164;DHT22;13914;48.178;11.716;2023-04-01T04:21:43;7.60;81.80
26164;DHT22;13914;48.178;11.716;2023-04-01T04:24:09;7.60;81.70
26164;DHT22;13914;48.178;11.716;2023-04-01T04:26:35;7.50;81.90
26164;DHT22;13914;48.178;11.716;2023-04-01T04:29:01;7.50;81.90
26164;DHT22;13914;48.178;11.716;2023-04-01T04:31:27;7.50;81.60
26164;DHT22;13914;48.178;11.716;2023-04-01T04:33:53;7.50;81.90
26164;DHT22;13914;48.178;11.716;2023-04-01T04:36:20;7.50;82.00
26164;DHT22;13914;48.178;11.716;2023-04-01T04:38:46;7.50;81.90
26164;DHT22;13914;48.178;11.716;2023-04-01T04:41:14;7.50;83.00
26164;DHT22;13914;48.178;11.716;2023-04-01T04:43:42;7.50;82.30
26164;DHT22;13914;48.178;11.716;2023-04-01T04:46:08;7.50;82.30
26164;DHT22;13914;48.178;11.716;2023-04-01T04:48:35;7.50;82.10
26164;DHT22;13914;48.178;11.716;2023-04-01T04:51:01;7.50;82.10
26164;DHT22;13914;48.178;11.716;2023-04-01T04:53:27;7.50;82.10
26164;DHT22;13914;48.178;11.716;2023-04-01T04:55:52;7.50;82.30
26164;DHT22;13914;48.178;11.716;2023-04-01T04:58:18;7.50;81.90
26164;DHT22;13914;48.178;11.716;2023-04-01T05:00:44;7.50;82.50
26164;DHT22;13914;48.178;11.716;2023-04-01T05:03:11;7.50;82.40
26164;DHT22;13914;48.178;11.716;2023-04-01T05:05:37;7.50;82.60
26164;DHT22;13914;48.178;11.716;2023-04-01T05:08:03;7.50;82.40
26164;DHT22;13914;48.178;11.716;2023-04-01T05:10:29;7.50;82.30
26164;DHT22;13914;48.178;11.716;2023-04-01T05:12:55;7.60;82.40
26164;DHT22;13914;48.178;11.716;2023-04-01T05:15:21;7.50;82.30
26164;DHT22;13914;48.178;11.716;2023-04-01T05:17:47;7.50;82.40
26164;DHT22;13914;48.178;11.716;2023-04-01T05:20:13;7.60;82.20
26164;DHT22;13914;48.178;11.716;2023-04-01T05:22:39;7.50;81.90
26164;DHT22;13914;48.178;11.716;2023-04-01T05:25:05;7.60;82.10
26164;DHT22;13914;48.178;11.716;2023-04-01T05:27:31;7.60;81.60
26164;DHT22;13914;48.178;11.716;2023-04-01T05:29:57;7.60;82.00
26164;DHT22;13914;48.178;11.716;2023-04-01T05:32:23;7.60;81.60
26164;DHT22;13914;48.178;11.716;2023-04-01T05:34:51;7.60;81.90
26164;DHT22;13914;48.178;11.716;2023-04-01T05:37:18;7.60;81.80
26164;DHT22;13914;48.178;11.716;2023-04-01T05:39:44;7.60;81.90
26164;DHT22;13914;48.178;11.716;2023-04-01T05:42:10;7.60;81.80
26164;DHT22;13914;48.178;11.716;2023-04-01T05:44:36;7.70;81.60
26164;DHT22;13914;48.178;11.716;2023-04-01T05:47:02;7.70;81.60
26164;DHT22;13914;48.178;11.716;2023-04-01T05:49:28;7.70;81.30
26164;DHT22;13914;48.178;11.716;2023-04-01T05:51:54;7.70;81.40
26164;DHT22;13914;48.178;11.716;2023-04-01T05:54:20;7.70;81.30
26164;DHT22;13914;48.178;11.716;2023-04-01T05:56:46;7.70;81.10
26164;DHT22;13914;48.178;11.716;2023-04-01T05:59:11;7.80;80.80
26164;DHT22;13914;48.178;11.716;2023-04-01T06:01:38;7.80;80.90
26164;DHT22;13914;48.178;11.716;2023-04-01T06:04:03;7.80;80.90
26164;DHT22;13914;48.178;11.716;2023-04-01T06:06:30;7.80;80.90
26164;DHT22;13914;48.178;11.716;2023-04-01T06:09:06;7.80;80.80
26164;DHT22;13914;48.178;11.716;2023-04-01T06:16:59;7.90;80.70
26164;DHT22;13914;48.178;11.716;2023-04-01T06:22:42;7.90;80.30
26164;DHT22;13914;48.178;11.716;2023-04-01T06:33:52;8.00;80.00
26164;DHT22;13914;48.178;11.716;2023-04-01T06:47:10;8.20;79.80
26164;DHT22;13914;48.178;11.716;2023-04-01T06:52:46;8.20;79.30
26164;DHT22;13914;48.178;11.716;2023-04-01T06:55:18;8.30;79.30
26164;DHT22;13914;48.178;11.716;2023-04-01T06:58:07;8.30;79.00
26164;DHT22;13914;48.178;11.716;2023-04-01T07:00:39;8.40;78.70
26164;DHT22;13914;48.178;11.716;2023-04-01T07:03:21;8.40;79.10
26164;DHT22;13914;48.178;11.716;2023-04-01T07:05:52;8.50;78.30
26164;DHT22;13914;48.178;11.716;2023-04-01T07:08:21;8.50;78.50
26164;DHT22;13914;48.178;11.716;2023-04-01T07:11:02;8.60;78.50
26164;DHT22;13914;48.178;11.716;2023-04-01T07:13:34;8.60;78.80
26164;DHT22;13914;48.178;11.716;2023-04-01T07:18:48;8.70;78.60
26164;DHT22;13914;48.178;11.716;2023-04-01T07:21:23;8.80;78.20
26164;DHT22;13914;48.178;11.716;2023-04-01T07:23:52;8.80;77.90
26164;DHT22;13914;48.178;11.716;2023-04-01T07:26:23;8.90;78.30
26164;DHT22;13914;48.178;11.716;2023-04-01T07:28:52;8.90;78.50
26164;DHT22;13914;48.178;11.716;2023-04-01T07:34:08;9.00;78.30
26164;DHT22;13914;48.178;11.716;2023-04-01T07:39:37;9.10;77.20
26164;DHT22;13914;48.178;11.716;2023-04-01T07:52:59;9.30;77.40
26164;DHT22;13914;48.178;11.716;2023-04-01T07:55:45;9.40;77.10
26164;DHT22;13914;48.178;11.716;2023-04-01T08:00:51;9.50;76.60
26164;DHT22;13914;48.178;11.716;2023-04-01T08:03:33;9.50;76.50
26164;DHT22;13914;48.178;11.716;2023-04-01T08:11:24;9.70;75.90
26164;DHT22;13914;48.178;11.716;2023-04-01T08:14:19;9.70;76.20
26164;DHT22;13914;48.178;11.716;2023-04-01T08:22:23;9.80;75.70
26164;DHT22;13914;48.178;11.716;2023-04-01T08:24:52;9.80;75.50
26164;DHT22;13914;48.178;11.716;2023-04-01T08:27:37;9.90;76.30
26164;DHT22;13914;48.178;11.716;2023-04-01T08:30:18;9.90;75.30
26164;DHT22;13914;48.178;11.716;2023-04-01T08:32:51;9.90;75.00
26164;DHT22;13914;48.178;11.716;2023-04-01T08:35:28;10.00;75.00
26164;DHT22;13914;48.178;11.716;2023-04-01T08:37:57;10.00;75.30
26164;DHT22;13914;48.178;11.716;2023-04-01T08:40:35;10.10;75.00
26164;DHT22;13914;48.178;11.716;2023-04-01T08:43:20;10.10;74.00
26164;DHT22;13914;48.178;11.716;2023-04-01T08:46:54;10.20;74.70
26164;DHT22;13914;48.178;11.716;2023-04-01T08:48:57;10.20;74.00
26164;DHT22;13914;48.178;11.716;2023-04-01T08:51:31;10.20;74.00
26164;DHT22;13914;48.178;11.716;2023-04-01T09:02:23;10.50;73.70
26164;DHT22;13914;48.178;11.716;2023-04-01T09:10:56;10.70;72.90
26164;DHT22;13914;48.178;11.716;2023-04-01T09:22:13;11.00;73.50
26164;DHT22;13914;48.178;11.716;2023-04-01T09:25:06;11.00;73.30
26164;DHT22;13914;48.178;11.716;2023-04-01T09:33:04;11.30;72.10
26164;DHT22;13914;48.178;11.716;2023-04-01T09:35:46;11.30;73.00
26164;DHT22;13914;48.178;11.716;2023-04-01T09:43:30;11.50;72.10
26164;DHT22;13914;48.178;11.716;2023-04-01T09:46:16;11.50;71.00
26164;DHT22;13914;48.178;11.716;2023-04-01T09:49:10;11.50;71.60
26164;DHT22;13914;48.178;11.716;2023-04-01T09:51:48;11.60;70.50
26164;DHT22;13914;48.178;11.716;2023-04-01T09:57:26;11.70;70.10
26164;DHT22;13914;48.178;11.716;2023-04-01T10:17:14;12.00;68.90
26164;DHT22;13914;48.178;11.716;2023-04-01T10:30:50;12.10;68.90
26164;DHT22;13914;48.178;11.716;2023-04-01T10:52:56;12.20;68.50
26164;DHT22;13914;48.178;11.716;2023-04-01T10:55:37;12.20;68.10
26164;DHT22;13914;48.178;11.716;2023-04-01T11:03:42;12.20;68.00
26164;DHT22;13914;48.178;11.716;2023-04-01T11:19:29;12.10;70.30
26164;DHT22;13914;48.178;11.716;2023-04-01T11:24:55;12.10;71.20
26164;DHT22;13914;48.178;11.716;2023-04-01T11:30:49;12.10;71.70
26164;DHT22;13914;48.178;11.716;2023-04-01T11:33:28;12.10;71.30
26164;DHT22;13914;48.178;11.716;2023-04-01T11:41:42;12.00;70.80
26164;DHT22;13914;48.178;11.716;2023-04-01T11:44:14;12.00;71.40
26164;DHT22;13914;48.178;11.716;2023-04-01T11:46:56;12.00;72.50
26164;DHT22;13914;48.178;11.716;2023-04-01T11:49:36;12.10;73.80
26164;DHT22;13914;48.178;11.716;2023-04-01T11:55:06;12.00;73.80
26164;DHT22;13914;48.178;11.716;2023-04-01T12:03:29;12.00;74.20
26164;DHT22;13914;48.178;11.716;2023-04-01T12:06:31;12.00;74.00
26164;DHT22;13914;48.178;11.716;2023-04-01T12:11:34;11.80;74.30
26164;DHT22;13914;48.178;11.716;2023-04-01T12:16:55;11.70;75.10
26164;DHT22;13914;48.178;11.716;2023-04-01T12:19:28;11.70;75.40
26164;DHT22;13914;48.178;11.716;2023-04-01T12:30:06;11.60;75.70
26164;DHT22;13914;48.178;11.716;2023-04-01T12:45:39;11.40;76.10
26164;DHT22;13914;48.178;11.716;2023-04-01T12:48:29;11.30;76.10
26164;DHT22;13914;48.178;11.716;2023-04-01T12:54:01;11.20;76.40
26164;DHT22;13914;48.178;11.716;2023-04-01T12:59:45;11.20;76.60
26164;DHT22;13914;48.178;11.716;2023-04-01T13:05:22;10.90;76.60
26164;DHT22;13914;48.178;11.716;2023-04-01T13:11:02;10.90;77.20
26164;DHT22;13914;48.178;11.716;2023-04-01T13:13:55;10.90;76.90
26164;DHT22;13914;48.178;11.716;2023-04-01T13:16:31;10.90;77.20
26164;DHT22;13914;48.178;11.716;2023-04-01T13:19:07;10.70;77.30
26164;DHT22;13914;48.178;11.716;2023-04-01T13:27:23;10.70;77.20
26164;DHT22;13914;48.178;11.716;2023-04-01T13:37:51;10.60;77.40
26164;DHT22;13914;48.178;11.716;2023-04-01T13:43:09;10.50;77.40
26164;DHT22;13914;48.178;11.716;2023-04-01T13:56:57;10.30;77.70
26164;DHT22;13914;48.178;11.716;2023-04-01T13:59:36;10.30;78.20
26164;DHT22;13914;48.178;11.716;2023-04-01T14:08:04;10.30;78.70
26164;DHT22;13914;48.178;11.716;2023-04-01T14:16:14;10.10;79.70
26164;DHT22;13914;48.178;11.716;2023-04-01T14:19:03;10.10;79.20
26164;DHT22;13914;48.178;11.716;2023-04-01T14:27:15;10.20;79.40
26164;DHT22;13914;48.178;11.716;2023-04-01T14:29:52;10.20;79.60
26164;DHT22;13914;48.178;11.716;2023-04-01T14:35:20;10.10;79.20
26164;DHT22;13914;48.178;11.716;2023-04-01T14:49:46;10.20;79.10
26164;DHT22;13914;48.178;11.716;2023-04-01T14:54:43;10.20;79.10
26164;DHT22;13914;48.178;11.716;2023-04-01T14:59:48;10.10;79.50
26164;DHT22;13914;48.178;11.716;2023-04-01T15:08:15;10.20;79.60
26164;DHT22;13914;48.178;11.716;2023-04-01T15:10:49;10.20;79.50
26164;DHT22;13914;48.178;11.716;2023-04-01T15:28:00;10.30;78.60
26164;DHT22;13914;48.178;11.716;2023-04-01T15:33:31;10.30;78.90
26164;DHT22;13914;48.178;11.716;2023-04-01T15:41:14;10.30;78.80
26164;DHT22;13914;48.178;11.716;2023-04-01T15:43:45;10.30;78.70
26164;DHT22;13914;48.178;11.716;2023-04-01T15:46:25;10.30;78.70
26164;DHT22;13914;48.178;11.716;2023-04-01T16:02:31;10.10;77.90
26164;DHT22;13914;48.178;11.716;2023-04-01T16:13:24;10.10;78.10
26164;DHT22;13914;48.178;11.716;2023-04-01T16:15:59;10.10;78.00
26164;DHT22;13914;48.178;11.716;2023-04-01T16:21:10;10.10;77.60
26164;DHT22;13914;48.178;11.716;2023-04-01T16:23:43;10.10;77.30
26164;DHT22;13914;48.178;11.716;2023-04-01T16:26:16;10.10;77.30
26164;DHT22;13914;48.178;11.716;2023-04-01T16:37:15;10.10;76.10
26164;DHT22;13914;48.178;11.716;2023-04-01T16:39:52;10.10;75.60
26164;DHT22;13914;48.178;11.716;2023-04-01T16:42:34;10.10;76.00
26164;DHT22;13914;48.178;11.716;2023-04-01T16:47:35;10.10;76.00
26164;DHT22;13914;48.178;11.716;2023-04-01T16:50:23;10.10;75.60
26164;DHT22;13914;48.178;11.716;2023-04-01T16:53:00;10.00;75.50
26164;DHT22;13914;48.178;11.716;2023-04-01T16:58:26;10.10;76.00
26164;DHT22;13914;48.178;11.716;2023-04-01T17:00:55;10.00;76.00
26164;DHT22;13914;48.178;11.716;2023-04-01T17:03:44;10.10;76.20
26164;DHT22;13914;48.178;11.716;2023-04-01T17:06:12;10.10;75.90
26164;DHT22;13914;48.178;11.716;2023-04-01T17:11:44;10.10;75.90
26164;DHT22;13914;48.178;11.716;2023-04-01T17:14:20;10.10;76.20
26164;DHT22;13914;48.178;11.716;2023-04-01T17:17:10;10.00;75.40
26164;DHT22;13914;48.178;11.716;2023-04-01T17:19:53;10.00;75.50
26164;DHT22;13914;48.178;11.716;2023-04-01T17:27:58;9.90;74.90
26164;DHT22;13914;48.178;11.716;2023-04-01T17:30:34;9.90;74.90
26164;DHT22;13914;48.178;11.716;2023-04-01T17:33:15;9.90;75.00
26164;DHT22;13914;48.178;11.716;2023-04-01T17:38:44;9.90;75.60
26164;DHT22;13914;48.178;11.716;2023-04-01T17:41:27;9.90;75.70
26164;DHT22;13914;48.178;11.716;2023-04-01T17:52:32;9.80;75.40
26164;DHT22;13914;48.178;11.716;2023-04-01T17:57:43;9.70;75.30
26164;DHT22;13914;48.178;11.716;2023-04-01T18:02:49;9.70;75.30
26164;DHT22;13914;48.178;11.716;2023-04-01T18:17:02;9.60;75.40
26164;DHT22;13914;48.178;11.716;2023-04-01T18:19:48;9.60;75.40
26164;DHT22;13914;48.178;11.716;2023-04-01T18:22:29;9.60;75.30
26164;DHT22;13914;48.178;11.716;2023-04-01T18:27:47;9.50;75.40
26164;DHT22;13914;48.178;11.716;2023-04-01T18:30:28;9.60;75.10
26164;DHT22;13914;48.178;11.716;2023-04-01T18:33:00;9.50;75.50
26164;DHT22;13914;48.178;11.716;2023-04-01T18:36:13;9.60;75.70
26164;DHT22;13914;48.178;11.716;2023-04-01T18:38:31;9.50;75.70
26164;DHT22;13914;48.178;11.716;2023-04-01T18:41:14;9.50;75.90
26164;DHT22;13914;48.178;11.716;2023-04-01T18:49:25;9.50;76.20
26164;DHT22;13914;48.178;11.716;2023-04-01T18:51:57;9.40;76.30
26164;DHT22;13914;48.178;11.716;2023-04-01T18:57:01;9.40;76.10
26164;DHT22;13914;48.178;11.716;2023-04-01T18:59:40;9.40;76.00
26164;DHT22;13914;48.178;11.716;2023-04-01T19:13:09;9.30;76.10
26164;DHT22;13914;48.178;11.716;2023-04-01T19:23:51;9.20;76.80
26164;DHT22;13914;48.178;11.716;2023-04-01T19:26:30;9.20;76.90
26164;DHT22;13914;48.178;11.716;2023-04-01T19:29:04;9.20;77.00
26164;DHT22;13914;48.178;11.716;2023-04-01T19:31:41;9.20;76.90
26164;DHT22;13914;48.178;11.716;2023-04-01T19:34:34;9.20;77.00
26164;DHT22;13914;48.178;11.716;2023-04-01T19:42:44;9.20;77.40
26164;DHT22;13914;48.178;11.716;2023-04-01T19:45:29;9.20;77.30
26164;DHT22;13914;48.178;11.716;2023-04-01T19:48:05;9.20;77.30
26164;DHT22;13914;48.178;11.716;2023-04-01T19:50:38;9.20;77.40
26164;DHT22;13914;48.178;11.716;2023-04-01T19:53:13;9.10;77.70
26164;DHT22;13914;48.178;11.716;2023-04-01T19:56:07;9.10;77.60
26164;DHT22;13914;48.178;11.716;2023-04-01T19:58:51;9.10;77.50
26164;DHT22;13914;48.178;11.716;2023-04-01T20:01:43;9.10;77.60
26164;DHT22;13914;48.178;11.716;2023-04-01T20:04:10;9.00;78.00
26164;DHT22;13914;48.178;11.716;2023-04-01T20:15:43;9.00;77.80
26164;DHT22;13914;48.178;11.716;2023-04-01T20:18:20;9.00;77.60
26164;DHT22;13914;48.178;11.716;2023-04-01T20:20:56;8.90;77.70
26164;DHT22;13914;48.178;11.716;2023-04-01T20:26:10;8.90;77.90
26164;DHT22;13914;48.178;11.716;2023-04-01T20:31:34;8.90;77.90
26164;DHT22;13914;48.178;11.716;2023-04-01T20:34:04;8.90;78.00
26164;DHT22;13914;48.178;11.716;2023-04-01T20:39:26;8.80;78.40
26164;DHT22;13914;48.178;11.716;2023-04-01T20:44:46;8.80;78.50
26164;DHT22;13914;48.178;11.716;2023-04-01T20:50:07;8.70;78.70
26164;DHT22;13914;48.178;11.716;2023-04-01T20:55:28;8.70;78.40
26164;DHT22;13914;48.178;11.716;2023-04-01T21:04:00;8.60;78.70
26164;DHT22;13914;48.178;11.716;2023-04-01T21:14:31;8.60;78.50
26164;DHT22;13914;48.178;11.716;2023-04-01T21:17:10;8.60;78.40
26164;DHT22;13914;48.178;11.716;2023-04-01T21:19:57;8.60;78.50
26164;DHT22;13914;48.178;11.716;2023-04-01T21:31:15;8.60;78.40
26164;DHT22;13914;48.178;11.716;2023-04-01T21:39:38;8.50;78.80
26164;DHT22;13914;48.178;11.716;2023-04-01T21:53:30;8.40;79.00
26164;DHT22;13914;48.178;11.716;2023-04-01T22:11:08;8.30;79.20
26164;DHT22;13914;48.178;11.716;2023-04-01T22:21:39;8.40;79.40
26164;DHT22;13914;48.178;11.716;2023-04-01T22:24:24;8.40;79.50
26164;DHT22;13914;48.178;11.716;2023-04-01T22:27:03;8.30;79.50
26164;DHT22;13914;48.178;11.716;2023-04-01T22:32:52;8.40;79.60
26164;DHT22;13914;48.178;11.716;2023-04-01T22:35:42;8.30;79.40
26164;DHT22;13914;48.178;11.716;2023-04-01T22:41:16;8.30;79.40
26164;DHT22;13914;48.178;11.716;2023-04-01T22:43:47;8.30;79.50
26164;DHT22;13914;48.178;11.716;2023-04-01T22:46:31;8.30;79.70
26164;DHT22;13914;48.178;11.716;2023-04-01T22:54:24;8.30;79.80
26164;DHT22;13914;48.178;11.716;2023-04-01T23:00:13;8.30;80.10
26164;DHT22;13914;48.178;11.716;2023-04-01T23:05:59;8.30;80.20
26164;DHT22;13914;48.178;11.716;2023-04-01T23:10:58;8.30;80.30
26164;DHT22;13914;48.178;11.716;2023-04-01T23:13:32;8.30;79.80
26164;DHT22;13914;48.178;11.716;2023-04-01T23:16:03;8.20;80.30
26164;DHT22;13914;48.178;11.716;2023-04-01T23:18:33;8.20;80.20
26164;DHT22;13914;48.178;11.716;2023-04-01T23:23:48;8.20;80.20
26164;DHT22;13914;48.178;11.716;2023-04-01T23:29:16;8.20;80.20
26164;DHT22;13914;48.178;11.716;2023-04-01T23:31:44;8.20;80.00
26164;DHT22;13914;48.178;11.716;2023-04-01T23:36:41;8.20;79.90
26164;DHT22;13914;48.178;11.716;2023-04-01T23:39:14;8.20;80.10
26164;DHT22;13914;48.178;11.716;2023-04-01T23:41:47;8.20;80.40
26164;DHT22;13914;48.178;11.716;2023-04-01T23:44:12;8.20;80.30
26164;DHT22;13914;48.178;11.716;2023-04-01T23:46:39;8.20;80.30
26164;DHT22;13914;48.178;11.716;2023-04-01T23:49:06;8.20;80.00
26164;DHT22;13914;48.178;11.716;2023-04-01T23:51:38;8.20;79.90
26164;DHT22;13914;48.178;11.716;2023-04-01T23:57:14;8.10;80.40
26164;DHT22;13914;48.178;11.716;2023-04-01T23:59:43;8.10;80.20
